createdAt,value
2023-02-26T00:03:11.339Z,20.2
2023-02-26T00:09:05.852Z,20.2
2023-02-26T00:14:44.829Z,20.2
2023-02-26T00:20:38.447Z,20.2
2023-02-26T00:26:31.653Z,20.2
2023-02-26T00:32:25.651Z,20.2
2023-02-26T00:38:18.130Z,20.2
2023-02-26T00:44:11.602Z,20.2
2023-02-26T00:50:04.865Z,20.2
2023-02-26T00:55:56.470Z,20.2
2023-02-26T01:01:49.367Z,20.2
2023-02-26T01:07:42.154Z,20.2
2023-02-26T01:13:34.025Z,20.2
2023-02-26T01:19:28.828Z,20.1
2023-02-26T01:25:21.671Z,20.2
2023-02-26T01:31:14.290Z,20.1
2023-02-26T01:37:08.608Z,20.1
2023-02-26T01:43:02.370Z,20.1
2023-02-26T01:48:55.472Z,20.2
2023-02-26T01:54:48.999Z,20.1
2023-02-26T02:00:42.018Z,20.1
2023-02-26T02:06:34.170Z,20.1
2023-02-26T02:12:27.572Z,20.1
2023-02-26T02:18:04.943Z,20.2
2023-02-26T02:23:41.876Z,20.3
2023-02-26T02:29:35.732Z,20.4
2023-02-26T02:35:30.532Z,20.4
2023-02-26T02:41:23.255Z,20.5
2023-02-26T02:47:18.982Z,20.6
2023-02-26T02:53:11.612Z,20.8
2023-02-26T02:59:03.769Z,20.8
2023-02-26T03:04:58.265Z,20.9
2023-02-26T03:10:51.795Z,21.1
2023-02-26T03:16:45.082Z,21.3
2023-02-26T03:22:38.818Z,21.4
2023-02-26T03:28:31.418Z,21.5
2023-02-26T03:34:24.955Z,21.6
2023-02-26T03:40:17.252Z,21.8
2023-02-26T03:45:54.467Z,21.8
2023-02-26T03:51:47.713Z,21.9
2023-02-26T03:57:25.286Z,21.9
2023-02-26T04:03:18.594Z,21.9
2023-02-26T04:08:56.593Z,22
2023-02-26T04:14:36.727Z,22.1
2023-02-26T04:20:14.024Z,22.1
2023-02-26T04:26:07.012Z,22.1
2023-02-26T04:32:00.386Z,22.2
2023-02-26T04:37:53.021Z,22.2
2023-02-26T04:43:29.888Z,22.2
2023-02-26T04:49:24.395Z,22.3
2023-02-26T04:55:01.799Z,22.3
2023-02-26T05:00:39.925Z,22.3
2023-02-26T05:06:01.859Z,22.3
2023-02-26T05:11:55.065Z,22.3
2023-02-26T05:17:48.540Z,22.4
2023-02-26T05:23:44.562Z,22.4
2023-02-26T05:29:37.434Z,22.4
2023-02-26T05:35:30.919Z,22.4
2023-02-26T05:41:24.210Z,22.4
2023-02-26T05:47:17.274Z,22.4
2023-02-26T05:53:10.100Z,22.4
2023-02-26T05:58:47.152Z,22.5
2023-02-26T06:04:40.223Z,22.5
2023-02-26T06:10:31.998Z,22.5
2023-02-26T06:16:24.277Z,22.5
2023-02-26T06:22:17.400Z,22.5
2023-02-26T06:28:09.900Z,22.5
2023-02-26T06:34:04.024Z,22.5
2023-02-26T06:39:42.346Z,22.5
2023-02-26T06:45:18.958Z,22.5
2023-02-26T06:51:12.408Z,22.4
2023-02-26T06:57:04.857Z,22.5
2023-02-26T07:02:57.704Z,22.4
2023-02-26T07:09:09.782Z,22.5
2023-02-26T07:15:05.409Z,22.4
2023-02-26T07:20:58.175Z,22.4
2023-02-26T07:26:52.292Z,22.4
2023-02-26T07:32:48.633Z,22.4
2023-02-26T07:38:40.555Z,22.4
2023-02-26T07:44:33.315Z,22.4
2023-02-26T07:50:11.091Z,22.4
2023-02-26T07:56:02.974Z,22.4
2023-02-26T08:01:56.203Z,22.4
2023-02-26T08:07:48.935Z,22.4
2023-02-26T08:13:41.172Z,22.4
2023-02-26T08:19:34.878Z,22.3
2023-02-26T08:25:13.864Z,22.3
2023-02-26T08:30:50.324Z,22.4
2023-02-26T08:36:44.689Z,22.3
2023-02-26T08:42:06.817Z,22.3
2023-02-26T08:48:12.829Z,22.3
2023-02-26T08:54:05.952Z,22.3
2023-02-26T08:59:57.960Z,22.3
2023-02-26T09:05:53.676Z,22.3
2023-02-26T09:11:48.031Z,22.3
2023-02-26T09:17:25.271Z,22.3
2023-02-26T09:23:18.346Z,22.3
2023-02-26T09:29:11.417Z,22.3
2023-02-26T09:34:49.260Z,22.3
2023-02-26T09:40:44.148Z,40.1
2023-02-26T09:46:36.840Z,54.3
2023-02-26T09:52:13.445Z,47.3
2023-02-26T09:58:05.156Z,42.6
2023-02-26T10:03:57.968Z,53.6
2023-02-26T10:09:51.452Z,55.6
2023-02-26T10:15:42.233Z,52.9
2023-02-26T10:21:05.142Z,54.4
2023-02-26T10:26:58.115Z,55.3
2023-02-26T10:32:52.835Z,55.5
2023-02-26T10:38:16.996Z,55.6
2023-02-26T10:44:10.212Z,56.2
2023-02-26T10:49:46.982Z,56.5
2023-02-26T10:55:09.046Z,53
2023-02-26T11:00:47.014Z,47.3
2023-02-26T11:06:30.130Z,43.3
2023-02-26T11:12:07.276Z,39.9
2023-02-26T11:18:02.328Z,37.4
2023-02-26T11:23:54.207Z,35.3
2023-02-26T11:29:49.840Z,33.7
2023-02-26T11:35:45.918Z,32.4
2023-02-26T11:41:42.962Z,31.3
2023-02-26T11:47:19.198Z,30.3
2023-02-26T11:52:41.745Z,29.5
2023-02-26T11:58:17.949Z,28.8
2023-02-26T12:03:57.879Z,28.3
2023-02-26T12:09:50.950Z,27.7
2023-02-26T12:15:44.474Z,27.2
2023-02-26T12:21:24.056Z,26.8
2023-02-26T12:27:02.262Z,26.4
2023-02-26T12:32:55.816Z,26.1
2023-02-26T12:39:05.373Z,25.8
2023-02-26T12:44:43.331Z,25.6
2023-02-26T12:50:35.824Z,25.3
2023-02-26T12:56:29.239Z,25.1
2023-02-26T13:02:33.333Z,24.9
2023-02-26T13:08:25.380Z,24.8
2023-02-26T13:14:18.442Z,24.6
2023-02-26T13:20:11.473Z,24.4
2023-02-26T13:26:03.485Z,24.3
2023-02-26T13:32:00.187Z,24.3
2023-02-26T13:37:54.128Z,24.1
2023-02-26T13:43:46.823Z,24
2023-02-26T13:48:52.888Z,23.9
2023-02-26T13:54:15.112Z,23.8
2023-02-26T13:59:53.320Z,23.8
2023-02-26T14:05:30.593Z,23.7
2023-02-26T14:11:07.747Z,23.6
2023-02-26T14:16:47.276Z,23.6
2023-02-26T14:22:39.760Z,23.5
2023-02-26T14:28:32.817Z,23.4
2023-02-26T14:34:26.890Z,23.4
2023-02-26T14:40:23.006Z,23.4
2023-02-26T14:46:16.586Z,23.3
2023-02-26T14:52:09.450Z,23.3
2023-02-26T14:58:02.261Z,23.3
2023-02-26T15:03:54.669Z,23.2
2023-02-26T15:09:47.213Z,23.2
2023-02-26T15:15:42.228Z,23.1
2023-02-26T15:21:35.926Z,23.1
2023-02-26T15:27:29.376Z,23.1
2023-02-26T15:33:23.750Z,23
2023-02-26T15:39:17.730Z,23
2023-02-26T15:45:18.234Z,23
2023-02-26T15:51:11.786Z,22.9
2023-02-26T15:57:04.671Z,22.9
2023-02-26T16:02:42.676Z,22.9
2023-02-26T16:08:35.361Z,22.9
2023-02-26T16:14:28.432Z,22.9
2023-02-26T16:20:21.894Z,22.9
2023-02-26T16:26:15.491Z,22.8
2023-02-26T16:32:09.279Z,22.8
2023-02-26T16:37:48.586Z,22.8
2023-02-26T16:43:25.880Z,22.8
2023-02-26T16:49:04.683Z,22.8
2023-02-26T16:54:27.874Z,22.8
2023-02-26T16:59:52.311Z,22.8
2023-02-26T17:05:30.702Z,22.8
2023-02-26T17:11:25.508Z,22.8
2023-02-26T17:17:21.829Z,22.8
2023-02-26T17:23:16.653Z,22.8
2023-02-26T17:29:08.992Z,22.8
2023-02-26T17:35:03.224Z,22.8
2023-02-26T17:40:56.605Z,22.8
2023-02-26T17:46:49.830Z,22.7
2023-02-26T17:52:43.201Z,22.8
2023-02-26T17:58:36.965Z,22.7
2023-02-26T18:04:31.528Z,22.6
2023-02-26T18:10:25.249Z,22.7
2023-02-26T18:16:18.384Z,22.6
2023-02-26T18:22:12.242Z,22.6
2023-02-26T18:28:04.999Z,22.6
2023-02-26T18:33:59.570Z,22.6
2023-02-26T18:39:52.078Z,22.6
2023-02-26T18:45:45.382Z,22.6
2023-02-26T18:51:38.581Z,22.5
2023-02-26T18:57:31.019Z,22.5
2023-02-26T19:03:29.186Z,22.5
2023-02-26T19:09:22.601Z,22.5
2023-02-26T19:15:15.873Z,22.5
2023-02-26T19:21:09.074Z,22.5
2023-02-26T19:27:06.134Z,22.5
2023-02-26T19:33:02.779Z,22.4
2023-02-26T19:38:57.848Z,22.4
2023-02-26T19:44:51.550Z,22.4
2023-02-26T19:50:44.816Z,22.4
2023-02-26T19:56:37.048Z,22.4
2023-02-26T20:02:31.219Z,22.4
2023-02-26T20:08:24.678Z,22.4
2023-02-26T20:14:19.642Z,22.4
2023-02-26T20:20:13.855Z,22.4
2023-02-26T20:26:06.768Z,22.3
2023-02-26T20:31:45.958Z,22.4
2023-02-26T20:37:43.838Z,22.4
2023-02-26T20:43:36.840Z,22.3
2023-02-26T20:49:30.511Z,22.3
2023-02-26T20:55:24.136Z,22.3
2023-02-26T21:01:02.339Z,22.3
2023-02-26T21:06:40.549Z,22.3
2023-02-26T21:12:33.329Z,22.3
2023-02-26T21:18:26.825Z,22.3
2023-02-26T21:24:19.901Z,22.3
2023-02-26T21:30:14.876Z,22.3
2023-02-26T21:36:33.795Z,22.3
2023-02-26T21:42:27.565Z,22.3
2023-02-26T21:48:21.555Z,22.3
2023-02-26T21:54:15.213Z,22.3
2023-02-26T22:00:08.042Z,22.3
2023-02-26T22:06:01.230Z,22.3
2023-02-26T22:11:54.009Z,22.2
2023-02-26T22:17:46.492Z,22.2
2023-02-26T22:23:38.944Z,22.2
2023-02-26T22:29:30.903Z,22.2
2023-02-26T22:35:24.203Z,22.2
2023-02-26T22:41:16.779Z,22.2
2023-02-26T22:47:10.128Z,22.2
2023-02-26T22:53:02.014Z,22.2
2023-02-26T22:58:54.463Z,22.2
2023-02-26T23:04:48.480Z,22.2
2023-02-26T23:10:40.617Z,22.1
2023-02-26T23:16:33.894Z,22.1
2023-02-26T23:22:25.974Z,22.1
2023-02-26T23:28:18.051Z,22.1
2023-02-26T23:34:11.188Z,22.1
2023-02-26T23:40:03.315Z,22.1
2023-02-26T23:45:56.144Z,22.1
2023-02-26T23:51:48.391Z,22.1
2023-02-26T23:57:40.420Z,22.1
